createdAt,value
2022-11-24T00:00:18.112Z,72.03
2022-11-24T00:02:44.452Z,71.91
2022-11-24T00:05:10.797Z,72.09
2022-11-24T00:07:37.106Z,71.99
2022-11-24T00:10:03.405Z,71.56
2022-11-24T00:12:29.641Z,72.24
2022-11-24T00:14:55.880Z,72.30
2022-11-24T00:17:22.138Z,71.77
2022-11-24T00:19:48.391Z,71.66
2022-11-24T00:22:14.645Z,71.48
2022-11-24T00:24:40.912Z,71.28
2022-11-24T00:27:07.164Z,71.25
2022-11-24T00:29:33.408Z,70.18
2022-11-24T00:31:59.652Z,70.81
2022-11-24T00:34:25.913Z,70.47
2022-11-24T00:36:52.186Z,70.78
2022-11-24T00:39:18.502Z,70.55
2022-11-24T00:41:44.739Z,70.53
2022-11-24T00:44:11.002Z,69.71
2022-11-24T00:46:37.331Z,70.52
2022-11-24T00:49:03.731Z,70.22
2022-11-24T00:51:29.995Z,70.35
2022-11-24T00:53:56.230Z,70.08
2022-11-24T00:56:22.489Z,69.98
2022-11-24T00:58:48.744Z,69.96
2022-11-24T01:01:15.059Z,69.44
2022-11-24T01:03:41.398Z,70.08
2022-11-24T01:06:07.646Z,70.07
2022-11-24T01:08:33.897Z,70.21
2022-11-24T01:11:00.145Z,70.02
2022-11-24T01:13:26.437Z,70.39
2022-11-24T01:15:52.789Z,70.74
2022-11-24T01:18:19.091Z,70.45
2022-11-24T01:20:45.441Z,70.70
2022-11-24T01:23:11.706Z,70.69
2022-11-24T01:25:37.956Z,70.57
2022-11-24T01:28:04.234Z,70.76
2022-11-24T01:30:30.555Z,70.39
2022-11-24T01:32:56.883Z,69.88
2022-11-24T01:35:23.138Z,70.40
2022-11-24T01:37:49.386Z,70.15
2022-11-24T01:40:15.633Z,69.97
2022-11-24T01:42:41.882Z,69.99
2022-11-24T01:45:08.122Z,69.38
2022-11-24T01:47:34.358Z,69.64
2022-11-24T01:50:00.765Z,68.93
2022-11-24T01:52:27.035Z,69.31
2022-11-24T01:54:53.299Z,68.90
2022-11-24T01:57:19.592Z,69.19
2022-11-24T01:59:45.860Z,69.60
2022-11-24T02:02:12.135Z,68.85
2022-11-24T02:04:38.430Z,68.61
2022-11-24T02:07:04.702Z,68.83
2022-11-24T02:09:30.937Z,69.19
2022-11-24T02:11:57.185Z,69.32
2022-11-24T02:14:23.448Z,69.18
2022-11-24T02:16:49.682Z,69.16
2022-11-24T02:19:15.931Z,69.17
2022-11-24T02:21:42.192Z,68.51
2022-11-24T02:24:08.431Z,68.89
2022-11-24T02:26:34.667Z,68.62
2022-11-24T02:29:00.941Z,68.68
2022-11-24T02:31:27.241Z,68.86
2022-11-24T02:33:53.525Z,68.20
2022-11-24T02:36:19.818Z,68.58
2022-11-24T02:38:46.096Z,68.47
2022-11-24T02:41:12.357Z,68.77
2022-11-24T02:43:38.620Z,68.50
2022-11-24T02:46:04.932Z,67.86
2022-11-24T02:48:31.250Z,67.90
2022-11-24T02:50:57.505Z,68.33
2022-11-24T02:53:23.766Z,68.72
2022-11-24T02:55:50.022Z,68.56
2022-11-24T02:58:16.277Z,68.68
2022-11-24T03:00:42.513Z,68.47
2022-11-24T03:03:08.898Z,68.19
2022-11-24T03:05:35.182Z,68.30
2022-11-24T03:08:01.418Z,68.02
2022-11-24T03:10:27.685Z,67.52
2022-11-24T03:12:53.938Z,67.64
2022-11-24T03:15:20.201Z,68.39
2022-11-24T03:17:46.457Z,67.97
2022-11-24T03:20:12.721Z,67.81
2022-11-24T03:22:39.003Z,67.80
2022-11-24T03:25:05.245Z,67.96
2022-11-24T03:27:31.499Z,67.49
2022-11-24T03:29:57.777Z,67.27
2022-11-24T03:32:24.031Z,66.49
2022-11-24T03:34:50.270Z,66.63
2022-11-24T03:37:16.512Z,66.37
2022-11-24T03:39:42.768Z,67.07
2022-11-24T03:42:09.054Z,66.86
2022-11-24T03:44:35.505Z,67.10
2022-11-24T03:47:01.905Z,67.13
2022-11-24T03:49:28.149Z,67.10
2022-11-24T03:51:54.394Z,66.86
2022-11-24T03:54:20.660Z,66.57
2022-11-24T03:56:47.026Z,67.29
2022-11-24T03:59:13.288Z,66.69
2022-11-24T04:01:39.629Z,66.94
2022-11-24T04:04:05.895Z,66.59
2022-11-24T04:06:32.124Z,67.02
2022-11-24T04:08:58.358Z,67.27
2022-11-24T04:11:24.602Z,67.14
2022-11-24T04:13:50.856Z,66.72
2022-11-24T04:16:17.166Z,67.19
2022-11-24T04:18:43.432Z,67.28
2022-11-24T04:21:09.665Z,67.00
2022-11-24T04:23:35.925Z,66.52
2022-11-24T04:26:02.163Z,67.00
2022-11-24T04:28:28.433Z,67.11
2022-11-24T04:30:54.719Z,66.68
2022-11-24T04:33:20.985Z,67.17
2022-11-24T04:35:47.239Z,67.06
2022-11-24T04:38:13.498Z,66.60
2022-11-24T04:40:59.710Z,67.31
2022-11-24T04:43:25.975Z,67.47
2022-11-24T04:45:52.228Z,67.25
2022-11-24T04:48:18.501Z,66.94
2022-11-24T04:50:44.749Z,67.21
2022-11-24T04:53:10.989Z,67.85
2022-11-24T04:55:37.221Z,67.07
2022-11-24T04:58:03.463Z,67.47
2022-11-24T05:00:29.718Z,67.30
2022-11-24T05:02:55.985Z,66.81
2022-11-24T05:05:22.236Z,66.88
2022-11-24T05:07:48.529Z,66.93
2022-11-24T05:10:14.845Z,66.25
2022-11-24T05:12:41.098Z,66.39
2022-11-24T05:15:07.367Z,66.61
2022-11-24T05:17:33.634Z,66.67
2022-11-24T05:19:59.874Z,66.40
2022-11-24T05:22:26.130Z,66.22
2022-11-24T05:24:52.389Z,66.04
2022-11-24T05:27:18.667Z,66.79
2022-11-24T05:29:44.901Z,66.65
2022-11-24T05:32:11.145Z,67.57
2022-11-24T05:34:37.414Z,67.79
2022-11-24T05:37:03.669Z,67.67
2022-11-24T05:39:29.928Z,67.46
2022-11-24T05:41:56.200Z,67.37
2022-11-24T05:44:22.455Z,67.42
2022-11-24T05:46:48.796Z,67.68
2022-11-24T05:49:15.121Z,67.51
2022-11-24T05:51:41.376Z,67.73
2022-11-24T05:54:07.643Z,67.53
2022-11-24T05:56:33.914Z,67.25
2022-11-24T05:59:02.196Z,67.63
2022-11-24T06:01:30.459Z,67.23
2022-11-24T06:03:56.749Z,67.41
2022-11-24T06:06:22.993Z,67.19
2022-11-24T06:08:49.249Z,66.88
2022-11-24T06:11:15.518Z,66.84
2022-11-24T06:13:41.837Z,66.37
2022-11-24T06:16:08.257Z,66.64
2022-11-24T06:18:34.523Z,66.72
2022-11-24T06:21:10.641Z,66.89
2022-11-24T06:23:37.972Z,65.91
2022-11-24T06:26:04.228Z,66.26
2022-11-24T06:28:30.496Z,65.85
2022-11-24T06:30:56.758Z,65.87
2022-11-24T06:33:23.043Z,65.70
2022-11-24T06:35:49.314Z,65.08
2022-11-24T06:38:18.911Z,65.41
2022-11-24T06:40:47.712Z,64.63
2022-11-24T06:43:13.980Z,64.76
2022-11-24T06:45:40.323Z,64.75
2022-11-24T06:48:06.667Z,64.73
2022-11-24T06:50:33.850Z,64.79
2022-11-24T06:53:00.205Z,64.76
2022-11-24T06:55:26.446Z,65.07
2022-11-24T06:57:52.713Z,65.33
2022-11-24T07:00:18.969Z,64.92
2022-11-24T07:02:46.219Z,64.69
2022-11-24T07:05:12.643Z,65.07
2022-11-24T07:07:39.026Z,65.11
2022-11-24T07:10:05.356Z,64.50
2022-11-24T07:12:31.641Z,65.22
2022-11-24T07:14:57.930Z,65.23
2022-11-24T07:17:24.193Z,64.34
2022-11-24T07:19:50.437Z,64.57
2022-11-24T07:22:16.718Z,64.25
2022-11-24T07:24:42.989Z,64.41
2022-11-24T07:27:09.226Z,64.31
2022-11-24T07:29:35.472Z,64.67
2022-11-24T07:32:05.480Z,64.30
2022-11-24T07:34:32.559Z,63.48
2022-11-24T07:36:59.094Z,63.21
2022-11-24T07:39:25.353Z,63.59
2022-11-24T07:41:51.708Z,63.09
2022-11-24T07:44:17.971Z,63.93
2022-11-24T07:46:44.222Z,64.08
2022-11-24T07:49:10.508Z,64.21
2022-11-24T07:51:36.763Z,64.02
2022-11-24T07:54:03.035Z,64.05
2022-11-24T07:56:29.273Z,63.35
2022-11-24T07:58:55.517Z,63.53
2022-11-24T08:01:21.891Z,63.26
2022-11-24T08:03:48.282Z,64.07
2022-11-24T08:06:38.730Z,63.94
2022-11-24T08:09:00.780Z,63.49
2022-11-24T08:11:27.068Z,63.45
2022-11-24T08:13:53.335Z,63.51
2022-11-24T08:16:19.663Z,63.38
2022-11-24T08:18:45.985Z,64.08
2022-11-24T08:21:12.222Z,63.92
2022-11-24T08:23:38.479Z,63.65
2022-11-24T08:26:04.721Z,63.04
2022-11-24T08:28:30.973Z,63.14
2022-11-24T08:30:57.220Z,63.68
2022-11-24T08:33:23.471Z,62.86
2022-11-24T08:35:49.711Z,63.33
2022-11-24T08:38:15.962Z,62.85
2022-11-24T08:40:42.239Z,62.90
2022-11-24T08:43:08.481Z,62.81
2022-11-24T08:45:41.035Z,62.57
2022-11-24T08:48:07.749Z,61.38
2022-11-24T08:53:44.577Z,62.20
2022-11-24T08:56:10.832Z,61.99
2022-11-24T08:58:37.149Z,62.60
2022-11-24T09:01:03.477Z,62.58
2022-11-24T09:03:29.798Z,62.79
2022-11-24T09:05:56.045Z,62.70
2022-11-24T09:08:22.283Z,62.68
2022-11-24T09:10:48.546Z,62.62
2022-11-24T09:13:14.874Z,61.84
2022-11-24T09:15:41.118Z,61.87
2022-11-24T09:18:07.364Z,60.83
2022-11-24T09:20:33.606Z,61.51
2022-11-24T09:22:59.857Z,61.24
2022-11-24T09:25:26.114Z,61.85
2022-11-24T09:27:52.382Z,61.38
2022-11-24T09:30:18.668Z,61.06
2022-11-24T09:32:44.929Z,61.26
2022-11-24T09:35:11.176Z,60.55
2022-11-24T09:37:37.446Z,60.24
2022-11-24T09:40:03.721Z,59.45
2022-11-24T09:42:29.953Z,59.65
2022-11-24T09:44:56.215Z,58.52
2022-11-24T09:47:22.472Z,58.98
2022-11-24T09:49:51.402Z,58.99
2022-11-24T09:52:18.038Z,58.90
2022-11-24T09:54:44.305Z,58.33
2022-11-24T09:57:10.575Z,57.68
2022-11-24T09:59:37.113Z,58.28
2022-11-24T10:02:03.589Z,58.08
2022-11-24T10:04:30.000Z,57.74
2022-11-24T10:06:56.295Z,57.26
2022-11-24T10:09:22.552Z,57.35
2022-11-24T10:11:48.841Z,57.09
2022-11-24T10:14:15.101Z,58.05
2022-11-24T10:16:41.393Z,57.52
2022-11-24T10:19:07.644Z,56.78
2022-11-24T10:21:33.882Z,56.54
2022-11-24T10:24:00.117Z,56.20
2022-11-24T10:26:26.359Z,56.44
2022-11-24T10:28:52.605Z,56.26
2022-11-24T10:31:18.981Z,56.97
2022-11-24T10:33:45.318Z,57.06
2022-11-24T10:36:11.560Z,57.15
2022-11-24T10:38:37.818Z,57.31
2022-11-24T10:41:04.089Z,57.68
2022-11-24T10:43:30.358Z,56.75
2022-11-24T10:45:56.887Z,56.33
2022-11-24T10:48:23.218Z,55.58
2022-11-24T10:50:49.474Z,55.30
2022-11-24T10:53:15.762Z,56.19
2022-11-24T10:55:42.035Z,55.67
2022-11-24T10:58:08.362Z,56.29
2022-11-24T11:00:34.612Z,55.65
2022-11-24T11:03:00.871Z,55.31
2022-11-24T11:05:27.160Z,55.26
2022-11-24T11:07:53.449Z,55.25
2022-11-24T11:10:19.732Z,54.58
2022-11-24T11:12:46.066Z,54.18
2022-11-24T11:15:12.388Z,54.89
2022-11-24T11:17:38.647Z,55.05
2022-11-24T11:20:05.127Z,54.71
2022-11-24T11:22:31.609Z,55.25
2022-11-24T11:24:57.864Z,55.40
2022-11-24T11:27:24.142Z,55.41
2022-11-24T11:35:22.902Z,57.30
2022-11-24T11:37:49.162Z,56.81
2022-11-24T11:40:15.420Z,57.77
2022-11-24T11:45:28.091Z,57.54
2022-11-24T11:47:54.417Z,56.80
2022-11-24T11:50:20.711Z,56.07
2022-11-24T11:52:46.974Z,55.52
2022-11-24T11:55:13.225Z,56.02
2022-11-24T11:57:39.485Z,55.45
2022-11-24T12:00:05.733Z,55.64
2022-11-24T12:02:32.084Z,56.50
2022-11-24T12:04:58.452Z,54.96
2022-11-24T12:07:24.776Z,54.47
2022-11-24T12:09:51.082Z,53.75
2022-11-24T12:12:17.328Z,54.00
2022-11-24T12:14:43.593Z,54.95
2022-11-24T12:17:09.856Z,55.46
2022-11-24T12:19:36.442Z,56.02
2022-11-24T12:22:02.868Z,55.44
2022-11-24T12:24:29.178Z,55.55
2022-11-24T12:26:55.473Z,55.76
2022-11-24T12:29:21.741Z,56.78
2022-11-24T12:31:48.116Z,56.45
2022-11-24T12:34:14.442Z,57.06
2022-11-24T12:36:40.693Z,56.84
2022-11-24T12:39:06.937Z,56.85
2022-11-24T12:41:41.616Z,55.99
2022-11-24T12:44:08.822Z,55.85
2022-11-24T12:46:35.094Z,55.74
2022-11-24T12:49:01.378Z,56.28
2022-11-24T12:51:27.644Z,55.05
2022-11-24T12:53:53.923Z,55.36
2022-11-24T12:56:20.194Z,54.87
2022-11-24T12:58:46.445Z,55.60
2022-11-24T13:01:16.409Z,54.17
2022-11-24T13:03:43.245Z,54.47
2022-11-24T13:06:09.521Z,54.43
2022-11-24T13:08:35.788Z,53.71
2022-11-24T13:11:02.033Z,52.12
2022-11-24T13:13:28.330Z,52.65
2022-11-24T13:16:20.656Z,51.44
2022-11-24T13:18:40.968Z,52.03
2022-11-24T13:21:07.251Z,52.36
2022-11-24T13:23:33.517Z,51.43
2022-11-24T13:25:59.872Z,51.98
2022-11-24T13:28:53.900Z,52.11
2022-11-24T13:31:12.415Z,51.61
2022-11-24T13:33:38.694Z,50.86
2022-11-24T13:36:04.968Z,50.63
2022-11-24T13:38:31.230Z,50.49
2022-11-24T13:41:13.448Z,51.68
2022-11-24T13:43:43.684Z,52.45
2022-11-24T13:46:09.991Z,51.98
2022-11-24T13:48:36.311Z,52.63
2022-11-24T13:51:03.529Z,51.92
2022-11-24T13:53:29.769Z,52.64
2022-11-24T13:55:56.014Z,52.19
2022-11-24T13:58:22.355Z,51.49
2022-11-24T14:00:48.589Z,51.82
2022-11-24T14:03:14.878Z,52.84
2022-11-24T14:05:41.215Z,52.57
2022-11-24T14:08:07.466Z,52.35
2022-11-24T14:10:33.725Z,52.02
2022-11-24T14:13:00.005Z,51.99
2022-11-24T14:15:26.270Z,52.50
2022-11-24T14:17:52.517Z,51.72
2022-11-24T14:20:18.822Z,51.83
2022-11-24T14:22:45.071Z,52.97
2022-11-24T14:25:11.338Z,53.47
2022-11-24T14:27:37.593Z,53.07
2022-11-24T14:30:03.954Z,54.04
2022-11-24T14:32:30.241Z,54.01
2022-11-24T14:34:56.630Z,53.71
2022-11-24T14:37:22.933Z,53.92
2022-11-24T14:39:49.197Z,54.30
2022-11-24T14:42:15.450Z,54.35
2022-11-24T14:44:41.694Z,54.53
2022-11-24T14:47:08.001Z,54.19
2022-11-24T14:49:34.333Z,53.88
2022-11-24T14:52:00.570Z,54.54
2022-11-24T14:54:26.857Z,54.58
2022-11-24T14:56:53.104Z,54.22
2022-11-24T14:59:19.346Z,55.49
2022-11-24T15:01:45.619Z,54.48
2022-11-24T15:04:17.885Z,54.87
2022-11-24T15:06:53.156Z,54.79
2022-11-24T15:09:19.418Z,54.86
2022-11-24T15:11:45.680Z,55.15
2022-11-24T15:14:11.930Z,54.99
2022-11-24T15:16:38.257Z,54.69
2022-11-24T15:19:04.706Z,54.24
2022-11-24T15:21:30.972Z,55.60
2022-11-24T15:23:57.229Z,55.15
2022-11-24T15:26:29.019Z,55.31
2022-11-24T15:28:57.669Z,55.92
2022-11-24T15:31:23.996Z,55.84
2022-11-24T15:33:50.313Z,55.77
2022-11-24T15:36:16.623Z,56.52
2022-11-24T15:38:42.897Z,56.61
2022-11-24T15:41:09.160Z,56.69
2022-11-24T15:43:35.463Z,56.92
2022-11-24T15:46:01.720Z,57.31
2022-11-24T15:48:27.976Z,57.64
2022-11-24T15:50:54.228Z,57.94
2022-11-24T15:53:20.489Z,57.53
2022-11-24T15:55:46.733Z,58.28
2022-11-24T15:58:12.971Z,57.91
2022-11-24T16:00:39.402Z,58.52
2022-11-24T16:03:38.223Z,58.21
2022-11-24T16:05:52.020Z,58.43
2022-11-24T16:08:18.273Z,58.87
2022-11-24T16:10:44.546Z,58.94
2022-11-24T16:13:10.841Z,59.10
2022-11-24T16:15:37.109Z,59.04
2022-11-24T16:18:03.395Z,59.45
2022-11-24T16:20:29.656Z,59.38
2022-11-24T16:22:55.949Z,59.14
2022-11-24T16:25:22.212Z,59.65
2022-11-24T16:27:48.521Z,59.78
2022-11-24T16:30:14.827Z,59.53
2022-11-24T16:32:41.075Z,59.80
2022-11-24T16:35:07.413Z,59.56
2022-11-24T16:37:33.663Z,59.86
2022-11-24T16:39:59.928Z,59.63
2022-11-24T16:42:26.192Z,59.90
2022-11-24T16:44:52.437Z,59.77
2022-11-24T16:47:18.700Z,59.89
2022-11-24T16:49:44.970Z,59.46
2022-11-24T16:52:12.162Z,59.75
2022-11-24T16:54:38.437Z,59.20
2022-11-24T16:57:04.714Z,59.40
2022-11-24T16:59:30.987Z,59.63
2022-11-24T17:01:57.341Z,59.39
2022-11-24T17:04:23.642Z,59.91
2022-11-24T17:06:49.948Z,59.80
2022-11-24T17:09:16.296Z,60.48
2022-11-24T17:11:42.552Z,59.97
2022-11-24T17:14:08.807Z,60.71
2022-11-24T17:16:35.290Z,60.64
2022-11-24T17:19:01.705Z,60.43
2022-11-24T17:21:27.961Z,60.62
2022-11-24T17:23:54.212Z,60.09
2022-11-24T17:26:20.458Z,60.23
2022-11-24T17:28:46.698Z,60.87
2022-11-24T17:31:12.991Z,60.63
2022-11-24T17:33:39.285Z,60.90
2022-11-24T17:36:05.559Z,60.70
2022-11-24T17:38:32.005Z,61.09
2022-11-24T17:40:58.275Z,60.54
2022-11-24T17:43:24.531Z,61.01
2022-11-24T17:45:50.867Z,60.89
2022-11-24T17:48:17.143Z,60.59
2022-11-24T17:50:43.420Z,60.70
2022-11-24T17:53:09.850Z,60.58
2022-11-24T17:55:36.121Z,60.52
2022-11-24T17:58:02.360Z,60.44
2022-11-24T18:00:28.640Z,60.34
2022-11-24T18:02:54.917Z,60.73
2022-11-24T18:05:21.179Z,60.64
2022-11-24T18:07:47.563Z,60.61
2022-11-24T18:10:13.859Z,60.83
2022-11-24T18:12:40.127Z,60.86
2022-11-24T18:15:06.441Z,60.79
2022-11-24T18:17:32.690Z,60.71
2022-11-24T18:19:59.120Z,60.82
2022-11-24T18:22:49.973Z,61.10
2022-11-24T18:25:11.657Z,61.42
2022-11-24T18:27:37.995Z,61.53
2022-11-24T18:30:04.263Z,61.29
2022-11-24T18:32:30.515Z,61.61
2022-11-24T18:34:56.801Z,61.50
2022-11-24T18:37:23.067Z,61.44
2022-11-24T18:39:49.334Z,61.53
2022-11-24T18:42:15.625Z,61.72
2022-11-24T18:44:41.960Z,61.12
2022-11-24T18:47:08.227Z,61.25
2022-11-24T18:49:34.478Z,60.98
2022-11-24T18:52:00.937Z,60.76
2022-11-24T18:54:27.212Z,60.76
2022-11-24T18:56:53.469Z,61.16
2022-11-24T18:59:19.741Z,60.75
2022-11-24T19:01:46.051Z,60.93
2022-11-24T19:04:12.345Z,60.81
2022-11-24T19:06:38.695Z,60.98
2022-11-24T19:09:05.104Z,60.52
2022-11-24T19:11:31.403Z,61.02
2022-11-24T19:13:57.645Z,61.11
2022-11-24T19:16:23.950Z,60.56
2022-11-24T19:18:53.731Z,60.79
2022-11-24T19:21:20.677Z,60.76
2022-11-24T19:23:46.914Z,60.26
2022-11-24T19:26:13.151Z,60.61
2022-11-24T19:28:39.501Z,60.52
2022-11-24T19:31:05.784Z,60.56
2022-11-24T19:33:32.053Z,60.71
2022-11-24T19:35:58.304Z,60.69
2022-11-24T19:38:29.745Z,61.09
2022-11-24T19:40:56.378Z,61.30
2022-11-24T19:43:22.725Z,61.75
2022-11-24T19:45:49.046Z,62.39
2022-11-24T19:48:15.314Z,61.84
2022-11-24T19:50:41.595Z,62.23
2022-11-24T19:53:07.839Z,62.00
2022-11-24T19:55:34.118Z,61.87
2022-11-24T19:58:00.441Z,62.25
2022-11-24T20:00:30.656Z,62.30
2022-11-24T20:02:58.375Z,62.31
2022-11-24T20:05:24.665Z,62.04
2022-11-24T20:07:50.989Z,61.97
2022-11-24T20:10:17.305Z,62.17
2022-11-24T20:12:43.571Z,62.38
2022-11-24T20:15:09.829Z,61.67
2022-11-24T20:17:36.091Z,61.73
2022-11-24T20:20:02.349Z,62.07
2022-11-24T20:22:28.662Z,61.73
2022-11-24T20:24:54.914Z,61.67
2022-11-24T20:27:21.240Z,61.59
2022-11-24T20:29:47.485Z,61.97
2022-11-24T20:32:13.745Z,61.91
2022-11-24T20:34:40.024Z,62.11
2022-11-24T20:37:06.275Z,62.24
2022-11-24T20:39:32.517Z,61.94
2022-11-24T20:41:58.761Z,61.97
2022-11-24T20:44:25.093Z,62.12
2022-11-24T20:46:51.345Z,62.40
2022-11-24T20:49:17.582Z,62.45
2022-11-24T20:51:43.863Z,62.24
2022-11-24T20:54:10.164Z,61.95
2022-11-24T20:56:36.404Z,62.12
2022-11-24T20:59:02.676Z,62.86
2022-11-24T21:01:29.115Z,62.37
2022-11-24T21:03:55.412Z,63.02
2022-11-24T21:06:21.684Z,62.83
2022-11-24T21:08:48.020Z,62.74
2022-11-24T21:11:14.256Z,63.01
2022-11-24T21:13:40.491Z,62.83
2022-11-24T21:16:06.794Z,62.51
2022-11-24T21:18:33.097Z,62.69
2022-11-24T21:20:59.350Z,62.72
2022-11-24T21:23:25.603Z,62.68
2022-11-24T21:25:51.856Z,62.90
2022-11-24T21:28:18.149Z,63.12
2022-11-24T21:30:44.419Z,62.67
2022-11-24T21:33:10.669Z,62.72
2022-11-24T21:35:36.905Z,62.56
2022-11-24T21:38:03.258Z,63.04
2022-11-24T21:40:29.585Z,62.84
2022-11-24T21:42:55.827Z,63.35
2022-11-24T21:45:22.091Z,63.34
2022-11-24T21:47:48.367Z,63.48
2022-11-24T21:50:14.843Z,62.86
2022-11-24T21:52:41.220Z,62.79
2022-11-24T21:55:07.467Z,63.22
2022-11-24T21:57:33.703Z,63.16
2022-11-24T21:59:59.945Z,63.42
2022-11-24T22:02:26.245Z,63.96
2022-11-24T22:04:52.517Z,63.97
2022-11-24T22:07:18.852Z,64.23
2022-11-24T22:09:45.157Z,64.29
2022-11-24T22:12:11.417Z,64.13
2022-11-24T22:14:40.551Z,63.77
2022-11-24T22:17:07.023Z,63.66
2022-11-24T22:19:33.277Z,63.72
2022-11-24T22:21:59.610Z,64.12
2022-11-24T22:24:27.343Z,63.69
2022-11-24T22:26:53.770Z,63.68
2022-11-24T22:29:20.022Z,63.63
2022-11-24T22:31:46.352Z,63.74
2022-11-24T22:34:12.641Z,63.66
2022-11-24T22:36:38.880Z,63.21
2022-11-24T22:39:05.149Z,63.13
2022-11-24T22:41:31.413Z,63.47
2022-11-24T22:43:57.684Z,62.94
2022-11-24T22:46:23.932Z,63.71
2022-11-24T22:48:50.232Z,62.86
2022-11-24T22:51:16.592Z,63.31
2022-11-24T22:53:42.833Z,63.48
2022-11-24T22:56:09.059Z,63.37
2022-11-24T22:58:35.292Z,63.10
2022-11-24T23:01:01.540Z,63.23
2022-11-24T23:03:27.912Z,63.08
2022-11-24T23:05:54.270Z,63.37
2022-11-24T23:08:20.506Z,63.56
2022-11-24T23:10:46.739Z,63.50
2022-11-24T23:13:12.982Z,63.37
2022-11-24T23:15:39.296Z,63.79
2022-11-24T23:18:05.522Z,63.67
2022-11-24T23:20:31.759Z,63.79
2022-11-24T23:22:58.122Z,63.34
2022-11-24T23:25:24.381Z,63.73
2022-11-24T23:27:50.681Z,63.39
2022-11-24T23:30:17.057Z,62.98
2022-11-24T23:32:43.315Z,63.90
2022-11-24T23:35:13.636Z,63.31
2022-11-24T23:38:06.023Z,63.81
2022-11-24T23:40:26.545Z,63.55
2022-11-24T23:42:52.808Z,63.63
2022-11-24T23:45:19.067Z,63.40
2022-11-24T23:47:45.310Z,63.17
2022-11-24T23:50:11.566Z,63.79
2022-11-24T23:52:37.798Z,63.80
2022-11-24T23:55:04.049Z,63.90
2022-11-24T23:57:30.312Z,63.80
2022-11-24T23:59:56.559Z,63.74
